createdAt,value
2022-11-20T16:05:34.714Z,0.6
2022-11-20T16:08:34.682Z,1.25
2022-11-20T16:11:34.771Z,0.6
2022-11-20T16:14:34.715Z,0.65
2022-11-20T16:17:34.665Z,1.4
2022-11-20T16:20:34.725Z,1.4
2022-11-20T16:23:34.669Z,0.3
2022-11-20T16:26:34.747Z,1.5
2022-11-20T16:29:34.788Z,1.15
2022-11-20T16:32:34.640Z,0.95
2022-11-20T16:35:34.740Z,1.4
2022-11-20T16:38:34.731Z,0.85
2022-11-20T16:41:34.707Z,0.95
2022-11-20T16:44:34.728Z,0.9
2022-11-20T16:47:34.683Z,1.6
2022-11-20T16:50:34.656Z,1.35
2022-11-20T16:53:34.738Z,2.6
2022-11-20T16:56:34.688Z,1.5
2022-11-20T16:59:34.646Z,1
2022-11-20T17:02:34.839Z,0.95
2022-11-20T17:05:34.755Z,0.9
2022-11-20T17:08:34.759Z,0.6
2022-11-20T17:11:34.797Z,0.65
2022-11-20T17:14:34.695Z,0.75
2022-11-20T17:17:34.889Z,0.75
2022-11-20T17:20:34.763Z,0.85
2022-11-20T17:23:34.784Z,0.6
2022-11-20T17:26:34.838Z,0.4
2022-11-20T17:29:42.159Z,0.55
2022-11-20T17:32:34.693Z,0.4
2022-11-20T17:35:34.694Z,0.2
2022-11-20T17:38:34.771Z,0.6
2022-11-20T17:41:34.780Z,0.9
2022-11-20T17:44:34.804Z,0.3
2022-11-20T17:47:34.715Z,0.4
2022-11-20T17:50:34.787Z,0.55
2022-11-20T17:53:34.867Z,0.3
2022-11-20T17:56:34.779Z,0.6
2022-11-20T17:59:34.771Z,0.55
2022-11-20T18:02:34.703Z,0.7
2022-11-20T18:05:34.791Z,0.5
2022-11-20T18:08:34.764Z,0.3
2022-11-20T18:11:34.800Z,0.2
2022-11-20T18:14:34.911Z,0.4
2022-11-20T18:17:34.801Z,1.1
2022-11-20T18:20:40.211Z,0.7
2022-11-20T18:23:34.825Z,1
2022-11-20T18:26:35.473Z,1.25
2022-11-20T18:29:34.961Z,1.2
2022-11-20T18:32:34.739Z,0.95
2022-11-20T18:35:34.767Z,2.65
2022-11-20T18:38:34.915Z,1.55
2022-11-20T18:41:34.938Z,2
2022-11-20T18:44:34.903Z,1.35
2022-11-20T18:47:34.759Z,0.7
2022-11-20T18:50:34.756Z,1.45
2022-11-20T18:53:34.968Z,0.95
2022-11-20T18:56:34.854Z,0.9
2022-11-20T18:59:34.960Z,0.25
2022-11-20T19:02:42.421Z,1.05
2022-11-20T19:05:34.877Z,1.35
2022-11-20T19:08:34.836Z,0.45
2022-11-20T19:11:34.879Z,0.55
2022-11-20T19:14:34.929Z,0.7
2022-11-20T19:17:34.941Z,1.7
2022-11-20T19:20:34.988Z,1.1
2022-11-20T19:23:35.017Z,0.8
2022-11-20T19:26:34.865Z,1.75
2022-11-20T19:29:34.891Z,2.4
2022-11-20T19:32:34.903Z,1.1
2022-11-20T19:35:34.800Z,2.8
2022-11-20T19:38:34.881Z,2.7
2022-11-20T19:41:35.000Z,3.3
2022-11-20T19:44:35.076Z,1.7
2022-11-20T19:48:09.057Z,1.9
2022-11-20T19:50:34.878Z,1.95
2022-11-20T19:53:34.804Z,3.55
2022-11-20T19:56:34.955Z,2.95
2022-11-20T19:59:34.990Z,1.2
2022-11-20T20:02:34.890Z,1.15
2022-11-20T20:05:34.919Z,3.1
2022-11-20T20:08:34.799Z,1.7
2022-11-20T20:11:34.911Z,1.05
2022-11-20T20:14:34.967Z,0.65
2022-11-20T20:17:34.985Z,1.5
2022-11-20T20:20:34.948Z,0.45
2022-11-20T20:23:34.843Z,1.55
2022-11-20T20:26:34.934Z,1.25
2022-11-20T20:29:34.886Z,0.6
2022-11-20T20:32:34.863Z,0.9
2022-11-20T20:35:35.041Z,1.3
2022-11-20T20:38:34.812Z,0.25
2022-11-20T20:41:34.919Z,1.15
2022-11-20T20:44:34.914Z,0.95
2022-11-20T20:47:34.999Z,0.3
2022-11-20T20:50:34.957Z,0.65
2022-11-20T20:53:34.861Z,0.65
2022-11-20T20:56:34.887Z,0.7
2022-11-20T20:59:35.047Z,0.65
2022-11-20T21:02:35.062Z,0.85
2022-11-20T21:05:34.922Z,0.55
2022-11-20T21:08:40.281Z,1.25
2022-11-20T21:11:35.011Z,0.6
2022-11-20T21:14:34.974Z,1.5
2022-11-20T21:17:34.892Z,0.85
2022-11-20T21:20:34.954Z,0.55
2022-11-20T21:23:34.967Z,1.2
2022-11-20T21:26:34.932Z,0.9
2022-11-20T21:29:34.972Z,0.5
2022-11-20T21:32:35.110Z,1.15
2022-11-20T21:35:35.025Z,1.25
2022-11-20T21:38:34.989Z,0.95
2022-11-20T21:41:34.995Z,0.6
2022-11-20T21:44:35.163Z,1.15
2022-11-20T21:47:35.001Z,1.05
2022-11-20T21:50:35.035Z,1
2022-11-20T21:53:34.902Z,2.05
2022-11-20T21:56:34.941Z,3.6
2022-11-20T21:59:34.936Z,1.9
2022-11-20T22:02:35.051Z,1.9
2022-11-20T22:05:35.002Z,1.8
2022-11-20T22:08:35.096Z,1.6
2022-11-20T22:11:34.999Z,1.85
2022-11-20T22:14:35.089Z,1.8
2022-11-20T22:17:34.944Z,1.6
2022-11-20T22:20:35.035Z,2.3
2022-11-20T22:23:35.003Z,3.95
2022-11-20T22:26:40.763Z,1
2022-11-20T22:29:35.194Z,2.3
2022-11-20T22:32:35.095Z,2.4
2022-11-20T22:35:34.992Z,1.9
2022-11-20T22:38:39.899Z,2.5
2022-11-20T22:41:35.054Z,2.8
2022-11-20T22:44:35.049Z,1.2
2022-11-20T22:47:35.075Z,3.35
2022-11-20T22:50:34.987Z,3.95
2022-11-20T22:53:35.118Z,2.6
2022-11-20T22:56:35.018Z,3.5
2022-11-20T22:59:34.935Z,2.1
2022-11-20T23:02:35.004Z,3.45
2022-11-20T23:05:34.951Z,2.1
2022-11-20T23:08:35.111Z,2.35
2022-11-20T23:11:34.955Z,2.65
2022-11-20T23:14:35.048Z,1.8
2022-11-20T23:17:34.998Z,1.85
2022-11-20T23:20:35.075Z,2.3
2022-11-20T23:23:35.067Z,2.2
2022-11-20T23:26:34.955Z,1.45
2022-11-20T23:29:35.173Z,2.05
2022-11-20T23:32:35.047Z,3.6
2022-11-20T23:35:35.048Z,2.25
2022-11-20T23:38:35.163Z,3.45
2022-11-20T23:41:35.036Z,2.45
2022-11-20T23:44:35.130Z,2.5
2022-11-20T23:47:35.140Z,3.25
2022-11-20T23:50:35.003Z,3.4
2022-11-20T23:53:35.101Z,3.45
2022-11-20T23:56:35.107Z,2.45
2022-11-20T23:59:35.003Z,3.1
